Bixby Knolls, California
Current Conditions -  °F | °C
As of 9:53 PM on Saturday 22 Nov 2014 (Local Time) from KLGB Reporting Station
Clear Clear  
Wind Chill: 61°   Ceiling: Unl
Heat Index: 61°   Visibility: 8mi
Dew Point: 58°   Wind: 5mph
Humidity: 90%   Direction: 140°SE
Pressure: 30.04"   Gusts: NA
Location:  33.8305°N, 118.182°W
Report Text: KLGB 230553Z 14004KT 8SM CLR 16/14 A3004 RMK AO2 SLP171 T01610144 10189 20156 50008
Loading
Personal Weather Stations






























Interactive Weather Map New forecast layout! Learn more

10-Day Weather Forecast

Advertisements
Track Severe Weather on mobile